sensor_id;sensor_type;location;lat;lon;timestamp;pressure;altitude;pressure_sealevel;temperature;humidity
10840;BME280;5473;42.706;23.328;2023-02-11T00:01:58;21231.91;;;-142.93;100.00
10840;BME280;5473;42.706;23.328;2023-02-11T00:04:25;21231.91;;;-142.93;100.00
10840;BME280;5473;42.706;23.328;2023-02-11T00:06:52;20471.59;;;-142.93;100.00
10840;BME280;5473;42.706;23.328;2023-02-11T00:09:19;20471.59;;;-142.93;100.00
10840;BME280;5473;42.706;23.328;2023-02-11T00:11:47;22245.91;;;-142.93;100.00
10840;BME280;5473;42.706;23.328;2023-02-11T00:14:14;23513.81;;;-142.93;100.00
10840;BME280;5473;42.706;23.328;2023-02-11T00:16:41;24528.50;;;-142.93;100.00
10840;BME280;5473;42.706;23.328;2023-02-11T00:19:08;24528.50;;;-142.93;100.00
10840;BME280;5473;42.706;23.328;2023-02-11T00:21:35;25289.75;;;-142.93;100.00
10840;BME280;5473;42.706;23.328;2023-02-11T00:24:02;26558.81;;;-142.93;100.00
10840;BME280;5473;42.706;23.328;2023-02-11T00:26:31;27320.50;;;-142.93;100.00
10840;BME280;5473;42.706;23.328;2023-02-11T00:29:00;28336.38;;;-142.93;100.00
10840;BME280;5473;42.706;23.328;2023-02-11T00:31:27;28389.94;;;-142.93;100.00
10840;BME280;5473;42.706;23.328;2023-02-11T00:33:55;27574.44;;;-142.93;100.00
10840;BME280;5473;42.706;23.328;2023-02-11T00:36:23;27320.50;;;-142.93;100.00
10840;BME280;5473;42.706;23.328;2023-02-11T00:38:52;26304.97;;;-142.93;100.00
10840;BME280;5473;42.706;23.328;2023-02-11T00:41:19;26304.97;;;-142.93;100.00
10840;BME280;5473;42.706;23.328;2023-02-11T00:43:46;25289.75;;;-142.93;100.00
10840;BME280;5473;42.706;23.328;2023-02-11T00:46:15;25035.97;;;-142.93;100.00
10840;BME280;5473;42.706;23.328;2023-02-11T00:48:42;25289.75;;;-142.93;100.00
10840;BME280;5473;42.706;23.328;2023-02-11T00:51:10;25797.31;;;-142.93;100.00
10840;BME280;5473;42.706;23.328;2023-02-11T00:53:37;26812.69;;;-142.93;100.00
10840;BME280;5473;42.706;23.328;2023-02-11T00:56:04;27574.44;;;-142.93;100.00
10840;BME280;5473;42.706;23.328;2023-02-11T00:58:32;28380.03;;;-142.93;100.00
10840;BME280;5473;42.706;23.328;2023-02-11T01:00:58;29285.03;;;-142.93;100.00
10840;BME280;5473;42.706;23.328;2023-02-11T01:03:27;29098.47;;;-142.93;100.00
10840;BME280;5473;42.706;23.328;2023-02-11T01:05:54;30047.34;;;-142.93;100.00
10840;BME280;5473;42.706;23.328;2023-02-11T01:08:21;29882.56;;;-142.93;100.00
10840;BME280;5473;42.706;23.328;2023-02-11T01:10:56;29163.97;;;-142.93;100.00
10840;BME280;5473;42.706;23.328;2023-02-11T01:13:25;28082.38;;;-142.93;100.00
10840;BME280;5473;42.706;23.328;2023-02-11T01:15:52;27574.44;;;-142.93;100.00
10840;BME280;5473;42.706;23.328;2023-02-11T01:18:19;27066.59;;;-142.93;100.00
10840;BME280;5473;42.706;23.328;2023-02-11T01:20:47;26558.81;;;-142.93;100.00
10840;BME280;5473;42.706;23.328;2023-02-11T01:23:14;27320.50;;;-142.93;100.00
10840;BME280;5473;42.706;23.328;2023-02-11T01:25:41;28641.97;;;-142.93;100.00
10840;BME280;5473;42.706;23.328;2023-02-11T01:28:15;28082.38;;;-142.93;100.00
10840;BME280;5473;42.706;23.328;2023-02-11T01:30:42;28082.38;;;-142.93;100.00
10840;BME280;5473;42.706;23.328;2023-02-11T01:33:08;28336.38;;;-142.93;100.00
10840;BME280;5473;42.706;23.328;2023-02-11T01:35:37;28082.38;;;-142.93;100.00
10840;BME280;5473;42.706;23.328;2023-02-11T01:38:05;28082.38;;;-142.93;100.00
10840;BME280;5473;42.706;23.328;2023-02-11T01:40:32;27066.59;;;-142.93;100.00
10840;BME280;5473;42.706;23.328;2023-02-11T01:42:59;26558.81;;;-142.93;100.00
10840;BME280;5473;42.706;23.328;2023-02-11T01:45:57;26812.69;;;-142.93;100.00
10840;BME280;5473;42.706;23.328;2023-02-11T01:48:27;26051.13;;;-142.93;100.00
10840;BME280;5473;42.706;23.328;2023-02-11T01:50:58;26051.13;;;-142.93;100.00
10840;BME280;5473;42.706;23.328;2023-02-11T01:53:29;26051.13;;;-142.93;100.00
10840;BME280;5473;42.706;23.328;2023-02-11T01:56:15;25797.31;;;-142.93;100.00
10840;BME280;5473;42.706;23.328;2023-02-11T01:59:05;25289.75;;;-142.93;100.00
10840;BME280;5473;42.706;23.328;2023-02-11T02:01:33;25035.97;;;-142.93;100.00
10840;BME280;5473;42.706;23.328;2023-02-11T02:04:04;25289.75;;;-142.93;100.00
10840;BME280;5473;42.706;23.328;2023-02-11T02:06:34;24782.25;;;-142.93;100.00
10840;BME280;5473;42.706;23.328;2023-02-11T02:09:07;24021.13;;;-142.93;100.00
10840;BME280;5473;42.706;23.328;2023-02-11T02:11:35;23513.81;;;-142.93;100.00
10840;BME280;5473;42.706;23.328;2023-02-11T02:14:02;23006.59;;;-142.93;100.00
10840;BME280;5473;42.706;23.328;2023-02-11T02:16:31;22499.44;;;-142.93;100.00
10840;BME280;5473;42.706;23.328;2023-02-11T02:22:28;21485.38;;;-142.93;100.00
10840;BME280;5473;42.706;23.328;2023-02-11T02:25:22;20978.44;;;-142.93;100.00
10840;BME280;5473;42.706;23.328;2023-02-11T02:28:01;21231.91;;;-142.93;100.00
10840;BME280;5473;42.706;23.328;2023-02-11T02:30:58;20725.03;;;-142.93;100.00
10840;BME280;5473;42.706;23.328;2023-02-11T02:33:37;20471.59;;;-142.93;100.00
10840;BME280;5473;42.706;23.328;2023-02-11T02:36:11;19204.84;;;-142.93;100.00
10840;BME280;5473;42.706;23.328;2023-02-11T02:38:43;18951.53;;;-142.93;100.00
10840;BME280;5473;42.706;23.328;2023-02-11T02:41:15;18445.00;;;-142.93;100.00
10840;BME280;5473;42.706;23.328;2023-02-11T02:43:44;18191.78;;;-142.93;100.00
10840;BME280;5473;42.706;23.328;2023-02-11T02:46:14;18191.78;;;-142.93;100.00
10840;BME280;5473;42.706;23.328;2023-02-11T02:48:43;17179.00;;;-142.93;100.00
10840;BME280;5473;42.706;23.328;2023-02-11T02:51:25;17179.00;;;-142.93;100.00
10840;BME280;5473;42.706;23.328;2023-02-11T02:54:06;16925.88;;;-142.93;100.00
10840;BME280;5473;42.706;23.328;2023-02-11T02:56:46;16925.88;;;-142.93;100.00
10840;BME280;5473;42.706;23.328;2023-02-11T02:59:24;17179.00;;;-142.93;100.00
10840;BME280;5473;42.706;23.328;2023-02-11T03:01:59;17432.19;;;-142.93;100.00
10840;BME280;5473;42.706;23.328;2023-02-11T03:04:35;17685.34;;;-142.93;100.00
10840;BME280;5473;42.706;23.328;2023-02-11T03:07:08;18191.78;;;-142.93;100.00
10840;BME280;5473;42.706;23.328;2023-02-11T03:09:41;18191.78;;;-142.93;100.00
10840;BME280;5473;42.706;23.328;2023-02-11T03:12:09;18445.00;;;-142.93;100.00
10840;BME280;5473;42.706;23.328;2023-02-11T03:14:39;18191.78;;;-142.93;100.00
10840;BME280;5473;42.706;23.328;2023-02-11T03:17:07;17938.56;;;-142.93;100.00
10840;BME280;5473;42.706;23.328;2023-02-11T03:19:39;17179.00;;;-142.93;100.00
10840;BME280;5473;42.706;23.328;2023-02-11T03:22:11;16925.88;;;-142.93;100.00
10840;BME280;5473;42.706;23.328;2023-02-11T03:24:40;16672.75;;;-142.93;100.00
10840;BME280;5473;42.706;23.328;2023-02-11T03:27:12;16166.56;;;-142.93;100.00
10840;BME280;5473;42.706;23.328;2023-02-11T03:29:44;15913.50;;;-142.93;100.00
10840;BME280;5473;42.706;23.328;2023-02-11T03:32:19;15407.44;;;-142.93;100.00
10840;BME280;5473;42.706;23.328;2023-02-11T03:34:53;14901.44;;;-142.93;100.00
10840;BME280;5473;42.706;23.328;2023-02-11T03:37:26;14648.47;;;-142.93;100.00
10840;BME280;5473;42.706;23.328;2023-02-11T03:39:58;14395.53;;;-142.93;100.00
10840;BME280;5473;42.706;23.328;2023-02-11T03:42:30;14395.53;;;-142.93;100.00
10840;BME280;5473;42.706;23.328;2023-02-11T03:45:02;14142.59;;;-142.93;100.00
10840;BME280;5473;42.706;23.328;2023-02-11T03:47:33;13131.09;;;-142.93;100.00
10840;BME280;5473;42.706;23.328;2023-02-11T03:50:05;13131.09;;;-142.93;100.00
10840;BME280;5473;42.706;23.328;2023-02-11T03:52:33;12625.44;;;-142.93;100.00
10840;BME280;5473;42.706;23.328;2023-02-11T03:55:02;12119.88;;;-142.93;100.00
10840;BME280;5473;42.706;23.328;2023-02-11T03:57:31;11867.13;;;-142.93;100.00
10840;BME280;5473;42.706;23.328;2023-02-11T03:59:58;11614.38;;;-142.93;100.00
10840;BME280;5473;42.706;23.328;2023-02-11T04:02:28;11614.38;;;-142.93;100.00
10840;BME280;5473;42.706;23.328;2023-02-11T04:04:56;10856.28;;;-142.93;100.00
10840;BME280;5473;42.706;23.328;2023-02-11T04:07:24;10603.63;;;-142.93;100.00
10840;BME280;5473;42.706;23.328;2023-02-11T04:09:52;10351.00;;;-142.93;100.00
10840;BME280;5473;42.706;23.328;2023-02-11T04:12:19;10351.00;;;-142.93;100.00
10840;BME280;5473;42.706;23.328;2023-02-11T04:14:45;10098.38;;;-142.93;100.00
10840;BME280;5473;42.706;23.328;2023-02-11T04:17:12;10098.38;;;-142.93;100.00
10840;BME280;5473;42.706;23.328;2023-02-11T04:19:39;10351.00;;;-142.93;100.00
10840;BME280;5473;42.706;23.328;2023-02-11T04:22:06;10351.00;;;-142.93;100.00
10840;BME280;5473;42.706;23.328;2023-02-11T04:24:34;10603.63;;;-142.93;100.00
10840;BME280;5473;42.706;23.328;2023-02-11T04:27:01;10856.28;;;-142.93;100.00
10840;BME280;5473;42.706;23.328;2023-02-11T04:29:28;11361.66;;;-142.93;100.00
10840;BME280;5473;42.706;23.328;2023-02-11T04:31:55;11614.38;;;-142.93;100.00
10840;BME280;5473;42.706;23.328;2023-02-11T04:34:22;12119.88;;;-142.93;100.00
10840;BME280;5473;42.706;23.328;2023-02-11T04:36:49;12119.88;;;-142.93;100.00
10840;BME280;5473;42.706;23.328;2023-02-11T04:39:16;11867.13;;;-142.93;100.00
10840;BME280;5473;42.706;23.328;2023-02-11T04:41:44;11361.66;;;-142.93;100.00
10840;BME280;5473;42.706;23.328;2023-02-11T04:44:10;10603.63;;;-142.93;100.00
10840;BME280;5473;42.706;23.328;2023-02-11T04:46:37;9845.78;;;-142.93;100.00
10840;BME280;5473;42.706;23.328;2023-02-11T04:49:04;9088.09;;;-142.93;100.00
10840;BME280;5473;42.706;23.328;2023-02-11T04:51:31;8330.59;;;-142.93;100.00
10840;BME280;5473;42.706;23.328;2023-02-11T04:53:58;7573.25;;;-142.93;100.00
10840;BME280;5473;42.706;23.328;2023-02-11T04:56:24;7068.47;;;-142.93;100.00
10840;BME280;5473;42.706;23.328;2023-02-11T04:58:53;6816.09;;;-142.93;100.00
10840;BME280;5473;42.706;23.328;2023-02-11T05:01:19;6563.75;;;-142.93;100.00
10840;BME280;5473;42.706;23.328;2023-02-11T05:03:46;6059.09;;;-142.93;100.00
10840;BME280;5473;42.706;23.328;2023-02-11T05:06:13;5806.81;;;-142.93;100.00
10840;BME280;5473;42.706;23.328;2023-02-11T05:08:40;5302.28;;;-142.93;100.00
10840;BME280;5473;42.706;23.328;2023-02-11T05:11:08;5050.06;;;-142.93;100.00
10840;BME280;5473;42.706;23.328;2023-02-11T05:13:39;5050.06;;;-142.93;100.00
10840;BME280;5473;42.706;23.328;2023-02-11T05:16:08;4797.84;;;-142.93;100.00
10840;BME280;5473;42.706;23.328;2023-02-11T05:18:36;4545.66;;;-142.93;100.00
10840;BME280;5473;42.706;23.328;2023-02-11T05:21:05;4545.66;;;-142.93;100.00
10840;BME280;5473;42.706;23.328;2023-02-11T05:23:34;4293.50;;;-142.93;100.00
10840;BME280;5473;42.706;23.328;2023-02-11T05:26:01;4041.34;;;-142.93;100.00
10840;BME280;5473;42.706;23.328;2023-02-11T05:28:28;4041.34;;;-142.93;100.00
10840;BME280;5473;42.706;23.328;2023-02-11T05:30:55;4293.50;;;-142.93;100.00
10840;BME280;5473;42.706;23.328;2023-02-11T05:33:24;4293.50;;;-142.93;100.00
10840;BME280;5473;42.706;23.328;2023-02-11T05:35:51;4293.50;;;-142.93;100.00
10840;BME280;5473;42.706;23.328;2023-02-11T05:38:17;4293.50;;;-142.93;100.00
10840;BME280;5473;42.706;23.328;2023-02-11T05:40:44;4041.34;;;-142.93;100.00
10840;BME280;5473;42.706;23.328;2023-02-11T05:43:11;4041.34;;;-142.93;100.00
10840;BME280;5473;42.706;23.328;2023-02-11T05:45:37;3537.09;;;-142.93;100.00
10840;BME280;5473;42.706;23.328;2023-02-11T05:48:04;3537.09;;;-142.93;100.00
10840;BME280;5473;42.706;23.328;2023-02-11T05:50:32;3537.09;;;-142.93;100.00
10840;BME280;5473;42.706;23.328;2023-02-11T05:52:59;3032.91;;;-142.93;100.00
10840;BME280;5473;42.706;23.328;2023-02-11T05:55:26;2528.81;;;-142.93;100.00
10840;BME280;5473;42.706;23.328;2023-02-11T05:57:53;1520.84;;;-142.93;100.00
10840;BME280;5473;42.706;23.328;2023-02-11T06:00:20;513.19;;;-142.93;100.00
10840;BME280;5473;42.706;23.328;2023-02-11T06:02:46;9.50;;;-142.93;100.00
10840;BME280;5473;42.706;23.328;2023-02-11T06:05:13;261.34;;;-142.93;100.00
10840;BME280;5473;42.706;23.328;2023-02-11T06:07:42;1016.97;;;-142.93;100.00
10840;BME280;5473;42.706;23.328;2023-02-11T06:10:09;2276.78;;;-142.93;100.00
10840;BME280;5473;42.706;23.328;2023-02-11T06:12:36;3537.09;;;-142.93;100.00
10840;BME280;5473;42.706;23.328;2023-02-11T06:15:04;4293.50;;;-142.93;100.00
10840;BME280;5473;42.706;23.328;2023-02-11T06:17:31;4797.84;;;-142.93;100.00
10840;BME280;5473;42.706;23.328;2023-02-11T06:19:58;5302.28;;;-142.93;100.00
10840;BME280;5473;42.706;23.328;2023-02-11T06:22:25;5302.28;;;-142.93;100.00
10840;BME280;5473;42.706;23.328;2023-02-11T06:24:54;5302.28;;;-142.93;100.00
10840;BME280;5473;42.706;23.328;2023-02-11T06:27:21;5302.28;;;-142.93;100.00
10840;BME280;5473;42.706;23.328;2023-02-11T06:29:47;5302.28;;;-142.93;100.00
10840;BME280;5473;42.706;23.328;2023-02-11T06:32:16;5554.56;;;-142.93;100.00
10840;BME280;5473;42.706;23.328;2023-02-11T06:34:43;5554.56;;;-142.93;100.00
10840;BME280;5473;42.706;23.328;2023-02-11T06:37:10;5806.81;;;-142.93;100.00
10840;BME280;5473;42.706;23.328;2023-02-11T06:39:37;5806.81;;;-142.93;100.00
10840;BME280;5473;42.706;23.328;2023-02-11T06:42:05;6311.41;;;-142.93;100.00
10840;BME280;5473;42.706;23.328;2023-02-11T06:44:32;6816.09;;;-142.93;100.00
10840;BME280;5473;42.706;23.328;2023-02-11T06:46:59;7320.84;;;-142.93;100.00
10840;BME280;5473;42.706;23.328;2023-02-11T06:49:26;8078.13;;;-142.93;100.00
10840;BME280;5473;42.706;23.328;2023-02-11T06:51:53;8078.13;;;-142.93;100.00
10840;BME280;5473;42.706;23.328;2023-02-11T06:54:20;8078.13;;;-142.93;100.00
10840;BME280;5473;42.706;23.328;2023-02-11T06:56:46;8330.59;;;-142.93;100.00
10840;BME280;5473;42.706;23.328;2023-02-11T06:59:16;8330.59;;;-142.93;100.00
10840;BME280;5473;42.706;23.328;2023-02-11T07:01:43;8835.56;;;-142.93;100.00
10840;BME280;5473;42.706;23.328;2023-02-11T07:04:10;9088.09;;;-142.93;100.00
10840;BME280;5473;42.706;23.328;2023-02-11T07:06:39;8835.56;;;-142.93;100.00
10840;BME280;5473;42.706;23.328;2023-02-11T07:09:06;10351.00;;;-142.93;100.00
10840;BME280;5473;42.706;23.328;2023-02-11T07:11:33;17179.00;;;-142.93;100.00
10840;BME280;5473;42.706;23.328;2023-02-11T07:14:03;29414.06;;;-142.93;100.00
10840;BME280;5473;42.706;23.328;2023-02-11T07:16:32;36730.94;;;-142.93;100.00
10840;BME280;5473;42.706;23.328;2023-02-11T07:18:59;38456.19;;;-142.93;100.00
10840;BME280;5473;42.706;23.328;2023-02-11T07:21:26;38718.91;;;-142.93;100.00
10840;BME280;5473;42.706;23.328;2023-02-11T07:23:52;38505.94;;;-142.93;100.00
10840;BME280;5473;42.706;23.328;2023-02-11T07:26:21;38362.63;;;-142.93;100.00
10840;BME280;5473;42.706;23.328;2023-02-11T07:28:49;38279.03;;;-142.93;100.00
10840;BME280;5473;42.706;23.328;2023-02-11T07:31:17;38241.22;;;-142.93;100.00
10840;BME280;5473;42.706;23.328;2023-02-11T07:33:46;38113.84;;;-142.93;100.00
10840;BME280;5473;42.706;23.328;2023-02-11T07:36:14;38095.94;;;-142.93;96.08
10840;BME280;5473;42.706;23.328;2023-02-11T07:38:42;38121.81;;;-142.93;90.45
10840;BME280;5473;42.706;23.328;2023-02-11T07:41:10;38137.72;;;-142.93;84.77
10840;BME280;5473;42.706;23.328;2023-02-11T07:43:38;38121.81;;;-142.93;81.66
10840;BME280;5473;42.706;23.328;2023-02-11T07:46:06;38139.72;;;-142.93;81.54
10840;BME280;5473;42.706;23.328;2023-02-11T07:48:33;38157.63;;;-142.93;82.71
10840;BME280;5473;42.706;23.328;2023-02-11T07:51:10;38149.66;;;-142.93;81.10
10840;BME280;5473;42.706;23.328;2023-02-11T07:53:37;38119.81;;;-142.93;80.85
10840;BME280;5473;42.706;23.328;2023-02-11T07:56:06;38195.44;;;-142.93;80.61
10840;BME280;5473;42.706;23.328;2023-02-11T07:58:34;38171.56;;;-142.93;81.05
10840;BME280;5473;42.706;23.328;2023-02-11T08:01:01;38203.41;;;-142.93;82.15
10840;BME280;5473;42.706;23.328;2023-02-11T08:03:28;38171.56;;;-142.93;83.35
10840;BME280;5473;42.706;23.328;2023-02-11T08:05:55;38169.56;;;-142.93;85.67
10840;BME280;5473;42.706;23.328;2023-02-11T08:08:25;38127.78;;;-142.93;83.08
10840;BME280;5473;42.706;23.328;2023-02-11T08:10:52;38155.63;;;-142.93;81.42
10840;BME280;5473;42.706;23.328;2023-02-11T08:13:19;38153.66;;;-142.93;78.42
10840;BME280;5473;42.706;23.328;2023-02-11T08:15:46;38217.34;;;-142.93;77.82
10840;BME280;5473;42.706;23.328;2023-02-11T08:18:13;38161.59;;;-142.93;78.15
10840;BME280;5473;42.706;23.328;2023-02-11T08:20:40;38187.47;;;-142.93;75.75
10840;BME280;5473;42.706;23.328;2023-02-11T08:23:06;38143.69;;;-142.93;74.28
10840;BME280;5473;42.706;23.328;2023-02-11T08:25:35;38064.09;;;-142.93;71.66
10840;BME280;5473;42.706;23.328;2023-02-11T08:28:01;38157.63;;;-142.93;70.79
10840;BME280;5473;42.706;23.328;2023-02-11T08:30:28;38243.22;;;-142.93;74.19
10840;BME280;5473;42.706;23.328;2023-02-11T08:32:55;38205.41;;;-142.93;75.76
10840;BME280;5473;42.706;23.328;2023-02-11T08:35:22;38195.44;;;-142.93;76.90
10840;BME280;5473;42.706;23.328;2023-02-11T08:37:50;38175.53;;;-142.93;73.89
10840;BME280;5473;42.706;23.328;2023-02-11T08:40:17;38205.41;;;-142.93;74.29
10840;BME280;5473;42.706;23.328;2023-02-11T08:42:45;38183.50;;;-142.93;75.96
10840;BME280;5473;42.706;23.328;2023-02-11T08:45:12;38165.59;;;-142.93;72.44
10840;BME280;5473;42.706;23.328;2023-02-11T08:47:39;38161.59;;;-142.93;73.54
10840;BME280;5473;42.706;23.328;2023-02-11T08:50:06;38183.50;;;-142.93;71.51
10840;BME280;5473;42.706;23.328;2023-02-11T08:52:32;38171.56;;;-142.93;69.27
10840;BME280;5473;42.706;23.328;2023-02-11T08:54:59;38169.56;;;-142.93;68.49
10840;BME280;5473;42.706;23.328;2023-02-11T08:57:26;38167.56;;;-142.93;68.96
10840;BME280;5473;42.706;23.328;2023-02-11T08:59:54;38163.59;;;-142.93;67.26
10840;BME280;5473;42.706;23.328;2023-02-11T09:02:21;38151.66;;;-142.93;66.44
10840;BME280;5473;42.706;23.328;2023-02-11T09:04:48;38149.66;;;-142.93;63.85
10840;BME280;5473;42.706;23.328;2023-02-11T09:07:14;38195.44;;;-142.93;64.56
10840;BME280;5473;42.706;23.328;2023-02-11T09:09:41;38169.56;;;-142.93;66.48
10840;BME280;5473;42.706;23.328;2023-02-11T09:12:08;38173.56;;;-142.93;67.17
10840;BME280;5473;42.706;23.328;2023-02-11T09:14:35;38141.72;;;-142.93;65.76
10840;BME280;5473;42.706;23.328;2023-02-11T09:17:04;38080.00;;;-142.93;61.54
10840;BME280;5473;42.706;23.328;2023-02-11T09:19:30;38143.69;;;-142.93;62.36
10840;BME280;5473;42.706;23.328;2023-02-11T09:21:58;38205.41;;;-142.93;61.37
10840;BME280;5473;42.706;23.328;2023-02-11T09:24:24;38191.47;;;-142.93;62.33
10840;BME280;5473;42.706;23.328;2023-02-11T09:26:51;38205.41;;;-142.93;63.20
10840;BME280;5473;42.706;23.328;2023-02-11T09:29:18;38201.41;;;-142.93;63.04
10840;BME280;5473;42.706;23.328;2023-02-11T09:31:45;38227.28;;;-142.93;63.37
10840;BME280;5473;42.706;23.328;2023-02-11T09:34:13;38183.50;;;-142.93;61.02
10840;BME280;5473;42.706;23.328;2023-02-11T09:36:40;38193.44;;;-142.93;60.67
10840;BME280;5473;42.706;23.328;2023-02-11T09:39:11;38195.44;;;-142.93;60.13
10840;BME280;5473;42.706;23.328;2023-02-11T09:41:54;38259.13;;;-142.93;63.68
10840;BME280;5473;42.706;23.328;2023-02-11T09:44:26;38223.31;;;-142.93;60.92
10840;BME280;5473;42.706;23.328;2023-02-11T09:46:55;38241.22;;;-142.93;59.08
10840;BME280;5473;42.706;23.328;2023-02-11T09:49:30;38257.13;;;-142.93;62.09
10840;BME280;5473;42.706;23.328;2023-02-11T09:52:04;38173.56;;;-142.93;59.37
10840;BME280;5473;42.706;23.328;2023-02-11T09:54:35;38173.56;;;-142.93;55.75
10840;BME280;5473;42.706;23.328;2023-02-11T09:57:04;38177.53;;;-142.93;54.61
10840;BME280;5473;42.706;23.328;2023-02-11T09:59:34;38185.50;;;-142.93;50.59
10840;BME280;5473;42.706;23.328;2023-02-11T10:02:03;38213.34;;;-142.93;52.87
10840;BME280;5473;42.706;23.328;2023-02-11T10:04:47;38169.56;;;-142.93;54.13
10840;BME280;5473;42.706;23.328;2023-02-11T10:07:22;38213.34;;;-142.93;53.21
10840;BME280;5473;42.706;23.328;2023-02-11T10:10:03;38229.28;;;-142.93;48.76
10840;BME280;5473;42.706;23.328;2023-02-11T10:12:50;38189.47;;;-142.93;46.36
10840;BME280;5473;42.706;23.328;2023-02-11T10:15:33;38205.41;;;-142.93;45.72
10840;BME280;5473;42.706;23.328;2023-02-11T10:18:16;38225.28;;;-142.93;49.91
10840;BME280;5473;42.706;23.328;2023-02-11T10:21:04;38217.34;;;-142.93;50.09
10840;BME280;5473;42.706;23.328;2023-02-11T10:23:37;38207.38;;;-142.93;49.66
10840;BME280;5473;42.706;23.328;2023-02-11T10:26:10;38243.22;;;-142.93;46.27
10840;BME280;5473;42.706;23.328;2023-02-11T10:28:39;38296.94;;;-142.93;46.02
10840;BME280;5473;42.706;23.328;2023-02-11T10:31:10;38199.41;;;-142.93;46.34
10840;BME280;5473;42.706;23.328;2023-02-11T10:33:43;38235.25;;;-142.93;45.11
10840;BME280;5473;42.706;23.328;2023-02-11T10:36:15;38271.06;;;-142.93;44.31
10840;BME280;5473;42.706;23.328;2023-02-11T10:38:42;38215.34;;;-142.93;44.20
10840;BME280;5473;42.706;23.328;2023-02-11T10:41:11;38197.44;;;-142.93;47.01
10840;BME280;5473;42.706;23.328;2023-02-11T10:43:40;38229.28;;;-142.93;43.52
10840;BME280;5473;42.706;23.328;2023-02-11T10:46:14;38261.13;;;-142.93;44.99
10840;BME280;5473;42.706;23.328;2023-02-11T10:48:43;38283.00;;;-142.93;43.38
10840;BME280;5473;42.706;23.328;2023-02-11T10:51:20;38237.25;;;-142.93;42.76
10840;BME280;5473;42.706;23.328;2023-02-11T10:53:49;38235.25;;;-142.93;43.65
10840;BME280;5473;42.706;23.328;2023-02-11T10:56:22;38269.09;;;-142.93;45.61
10840;BME280;5473;42.706;23.328;2023-02-11T10:58:56;38263.09;;;-142.93;44.86
10840;BME280;5473;42.706;23.328;2023-02-11T11:01:38;38255.16;;;-142.93;44.37
10840;BME280;5473;42.706;23.328;2023-02-11T11:04:05;38275.06;;;-142.93;44.04
10840;BME280;5473;42.706;23.328;2023-02-11T11:06:51;38283.00;;;-142.93;44.40
10840;BME280;5473;42.706;23.328;2023-02-11T11:09:26;38275.06;;;-142.93;47.41
10840;BME280;5473;42.706;23.328;2023-02-11T11:11:53;38326.81;;;-142.93;49.00
10840;BME280;5473;42.706;23.328;2023-02-11T11:14:20;38312.88;;;-142.93;47.62
10840;BME280;5473;42.706;23.328;2023-02-11T11:16:51;38243.22;;;-142.93;47.16
10840;BME280;5473;42.706;23.328;2023-02-11T11:19:23;38241.22;;;-142.93;45.18
10840;BME280;5473;42.706;23.328;2023-02-11T11:21:53;38281.03;;;-142.93;44.15
10840;BME280;5473;42.706;23.328;2023-02-11T11:24:23;38229.28;;;-142.93;42.57
10840;BME280;5473;42.706;23.328;2023-02-11T11:26:55;38298.94;;;-142.93;43.53
10840;BME280;5473;42.706;23.328;2023-02-11T11:29:29;38288.97;;;-142.93;44.68
10840;BME280;5473;42.706;23.328;2023-02-11T11:32:00;38304.91;;;-142.93;44.31
10840;BME280;5473;42.706;23.328;2023-02-11T11:34:32;38310.88;;;-142.93;42.90
10840;BME280;5473;42.706;23.328;2023-02-11T11:37:10;38314.84;;;-142.93;42.10
10840;BME280;5473;42.706;23.328;2023-02-11T11:39:38;38312.88;;;-142.93;46.77
10840;BME280;5473;42.706;23.328;2023-02-11T11:42:23;38328.78;;;-142.93;52.03
10840;BME280;5473;42.706;23.328;2023-02-11T11:44:56;38310.88;;;-142.93;53.50
10840;BME280;5473;42.706;23.328;2023-02-11T11:47:34;38241.22;;;-142.93;51.59
10840;BME280;5473;42.706;23.328;2023-02-11T11:50:28;38249.19;;;-142.93;46.29
10840;BME280;5473;42.706;23.328;2023-02-11T11:53:04;38239.22;;;-142.93;45.73
10840;BME280;5473;42.706;23.328;2023-02-11T11:55:37;38201.41;;;-142.93;42.17
10840;BME280;5473;42.706;23.328;2023-02-11T11:58:12;38271.06;;;-142.93;42.42
10840;BME280;5473;42.706;23.328;2023-02-11T12:00:46;38261.13;;;-142.93;45.18
10840;BME280;5473;42.706;23.328;2023-02-11T12:06:34;38288.97;;;-142.93;42.84
10840;BME280;5473;42.706;23.328;2023-02-11T12:09:15;38233.25;;;-142.93;41.61
10840;BME280;5473;42.706;23.328;2023-02-11T12:12:09;38330.78;;;-142.93;41.01
10840;BME280;5473;42.706;23.328;2023-02-11T12:14:44;38314.84;;;-142.93;41.87
10840;BME280;5473;42.706;23.328;2023-02-11T12:17:25;38308.88;;;-142.93;41.40
10840;BME280;5473;42.706;23.328;2023-02-11T12:20:15;38330.78;;;-142.93;44.18
10840;BME280;5473;42.706;23.328;2023-02-11T12:22:54;38320.81;;;-142.93;46.22
10840;BME280;5473;42.706;23.328;2023-02-11T12:25:30;38320.81;;;-142.93;45.56
10840;BME280;5473;42.706;23.328;2023-02-11T12:28:13;38338.75;;;-142.93;44.58
10840;BME280;5473;42.706;23.328;2023-02-11T12:30:56;38322.81;;;-142.93;43.21
10840;BME280;5473;42.706;23.328;2023-02-11T12:33:43;38306.91;;;-142.93;43.49
10840;BME280;5473;42.706;23.328;2023-02-11T12:36:19;38292.97;;;-142.93;43.02
10840;BME280;5473;42.706;23.328;2023-02-11T12:39:01;38370.59;;;-142.93;45.90
10840;BME280;5473;42.706;23.328;2023-02-11T12:41:42;38352.69;;;-142.93;44.61
10840;BME280;5473;42.706;23.328;2023-02-11T12:44:39;38364.63;;;-142.93;45.51
10840;BME280;5473;42.706;23.328;2023-02-11T12:47:17;38346.69;;;-142.93;47.48
10840;BME280;5473;42.706;23.328;2023-02-11T12:49:59;38364.63;;;-142.93;49.25
10840;BME280;5473;42.706;23.328;2023-02-11T12:52:40;38328.78;;;-142.93;49.18
10840;BME280;5473;42.706;23.328;2023-02-11T12:55:18;38328.78;;;-142.93;48.47
10840;BME280;5473;42.706;23.328;2023-02-11T12:57:49;38364.63;;;-142.93;50.79
10840;BME280;5473;42.706;23.328;2023-02-11T13:00:19;38320.81;;;-142.93;53.15